sensor_id;sensor_type;location;lat;lon;timestamp;P1;durP1;ratioP1;P2;durP2;ratioP2
37049;SDS011;22958;51.232;6.826;2023-06-14T00:00:17;10.77;;;6.67;;
37049;SDS011;22958;51.232;6.826;2023-06-14T00:02:43;12.27;;;7.07;;
37049;SDS011;22958;51.232;6.826;2023-06-14T00:05:08;11.43;;;6.30;;
37049;SDS011;22958;51.232;6.826;2023-06-14T00:07:38;15.48;;;6.53;;
37049;SDS011;22958;51.232;6.826;2023-06-14T00:10:07;16.98;;;6.78;;
37049;SDS011;22958;51.232;6.826;2023-06-14T00:12:33;12.65;;;6.18;;
37049;SDS011;22958;51.232;6.826;2023-06-14T00:14:59;9.82;;;5.57;;
37049;SDS011;22958;51.232;6.826;2023-06-14T00:17:28;9.55;;;6.40;;
37049;SDS011;22958;51.232;6.826;2023-06-14T00:19:59;16.50;;;6.32;;
37049;SDS011;22958;51.232;6.826;2023-06-14T00:22:25;12.38;;;6.07;;
37049;SDS011;22958;51.232;6.826;2023-06-14T00:24:51;11.77;;;5.37;;
37049;SDS011;22958;51.232;6.826;2023-06-14T00:27:17;9.88;;;6.00;;
37049;SDS011;22958;51.232;6.826;2023-06-14T00:29:42;19.50;;;6.97;;
37049;SDS011;22958;51.232;6.826;2023-06-14T00:32:08;14.43;;;6.47;;
37049;SDS011;22958;51.232;6.826;2023-06-14T00:34:33;15.73;;;6.43;;
37049;SDS011;22958;51.232;6.826;2023-06-14T00:36:59;11.13;;;6.20;;
37049;SDS011;22958;51.232;6.826;2023-06-14T00:39:25;13.07;;;6.30;;
37049;SDS011;22958;51.232;6.826;2023-06-14T00:41:51;8.53;;;5.90;;
37049;SDS011;22958;51.232;6.826;2023-06-14T00:44:16;11.83;;;6.33;;
37049;SDS011;22958;51.232;6.826;2023-06-14T00:46:42;9.75;;;5.93;;
37049;SDS011;22958;51.232;6.826;2023-06-14T00:49:09;11.10;;;6.20;;
37049;SDS011;22958;51.232;6.826;2023-06-14T00:51:35;8.35;;;5.55;;
37049;SDS011;22958;51.232;6.826;2023-06-14T00:54:02;12.82;;;6.50;;
37049;SDS011;22958;51.232;6.826;2023-06-14T00:56:28;16.23;;;6.33;;
37049;SDS011;22958;51.232;6.826;2023-06-14T00:58:54;19.65;;;6.68;;
37049;SDS011;22958;51.232;6.826;2023-06-14T01:01:20;9.65;;;5.97;;
37049;SDS011;22958;51.232;6.826;2023-06-14T01:03:46;13.45;;;6.55;;
37049;SDS011;22958;51.232;6.826;2023-06-14T01:06:19;10.73;;;6.10;;
37049;SDS011;22958;51.232;6.826;2023-06-14T01:09:08;24.45;;;6.50;;
37049;SDS011;22958;51.232;6.826;2023-06-14T01:11:45;12.23;;;6.75;;
37049;SDS011;22958;51.232;6.826;2023-06-14T01:14:17;12.82;;;6.50;;
37049;SDS011;22958;51.232;6.826;2023-06-14T01:16:43;9.10;;;5.80;;
37049;SDS011;22958;51.232;6.826;2023-06-14T01:19:10;18.08;;;6.43;;
37049;SDS011;22958;51.232;6.826;2023-06-14T01:21:38;14.50;;;6.57;;
37049;SDS011;22958;51.232;6.826;2023-06-14T01:24:07;10.05;;;6.45;;
37049;SDS011;22958;51.232;6.826;2023-06-14T01:26:33;15.68;;;6.63;;
37049;SDS011;22958;51.232;6.826;2023-06-14T01:29:00;10.25;;;6.03;;
37049;SDS011;22958;51.232;6.826;2023-06-14T01:31:26;18.98;;;6.38;;
37049;SDS011;22958;51.232;6.826;2023-06-14T01:33:54;10.73;;;6.40;;
37049;SDS011;22958;51.232;6.826;2023-06-14T01:36:20;11.00;;;5.90;;
37049;SDS011;22958;51.232;6.826;2023-06-14T01:38:47;16.65;;;6.30;;
37049;SDS011;22958;51.232;6.826;2023-06-14T01:41:15;11.05;;;6.10;;
37049;SDS011;22958;51.232;6.826;2023-06-14T01:46:08;16.90;;;5.90;;
37049;SDS011;22958;51.232;6.826;2023-06-14T01:48:34;12.45;;;5.97;;
37049;SDS011;22958;51.232;6.826;2023-06-14T01:51:00;14.20;;;6.33;;
37049;SDS011;22958;51.232;6.826;2023-06-14T01:53:25;12.40;;;6.27;;
37049;SDS011;22958;51.232;6.826;2023-06-14T01:55:51;14.77;;;6.50;;
37049;SDS011;22958;51.232;6.826;2023-06-14T01:58:19;14.55;;;6.32;;
37049;SDS011;22958;51.232;6.826;2023-06-14T02:00:44;11.70;;;6.27;;
37049;SDS011;22958;51.232;6.826;2023-06-14T02:03:10;14.13;;;6.20;;
37049;SDS011;22958;51.232;6.826;2023-06-14T02:05:36;15.10;;;6.07;;
37049;SDS011;22958;51.232;6.826;2023-06-14T02:08:04;9.90;;;6.00;;
37049;SDS011;22958;51.232;6.826;2023-06-14T02:10:30;12.67;;;6.43;;
37049;SDS011;22958;51.232;6.826;2023-06-14T02:12:55;12.73;;;5.83;;
37049;SDS011;22958;51.232;6.826;2023-06-14T02:15:21;11.30;;;6.10;;
37049;SDS011;22958;51.232;6.826;2023-06-14T02:17:47;11.00;;;6.63;;
37049;SDS011;22958;51.232;6.826;2023-06-14T02:20:14;13.90;;;5.70;;
37049;SDS011;22958;51.232;6.826;2023-06-14T02:22:40;12.25;;;5.60;;
37049;SDS011;22958;51.232;6.826;2023-06-14T02:25:05;14.40;;;6.57;;
37049;SDS011;22958;51.232;6.826;2023-06-14T02:29:58;14.35;;;5.82;;
37049;SDS011;22958;51.232;6.826;2023-06-14T02:32:24;12.07;;;6.10;;
37049;SDS011;22958;51.232;6.826;2023-06-14T02:34:49;10.77;;;6.30;;
37049;SDS011;22958;51.232;6.826;2023-06-14T02:37:15;8.73;;;5.83;;
37049;SDS011;22958;51.232;6.826;2023-06-14T02:39:41;12.75;;;6.38;;
37049;SDS011;22958;51.232;6.826;2023-06-14T02:42:06;15.70;;;6.77;;
37049;SDS011;22958;51.232;6.826;2023-06-14T02:44:32;14.43;;;6.07;;
37049;SDS011;22958;51.232;6.826;2023-06-14T02:46:58;7.97;;;5.47;;
37049;SDS011;22958;51.232;6.826;2023-06-14T02:49:25;15.70;;;6.68;;
37049;SDS011;22958;51.232;6.826;2023-06-14T02:51:51;11.80;;;6.13;;
37049;SDS011;22958;51.232;6.826;2023-06-14T02:54:16;12.60;;;5.50;;
37049;SDS011;22958;51.232;6.826;2023-06-14T02:56:42;10.90;;;6.20;;
37049;SDS011;22958;51.232;6.826;2023-06-14T02:59:08;9.07;;;5.47;;
37049;SDS011;22958;51.232;6.826;2023-06-14T03:01:34;9.73;;;5.57;;
37049;SDS011;22958;51.232;6.826;2023-06-14T03:04:03;11.15;;;6.38;;
37049;SDS011;22958;51.232;6.826;2023-06-14T03:06:29;11.35;;;5.85;;
37049;SDS011;22958;51.232;6.826;2023-06-14T03:11:26;11.45;;;5.43;;
37049;SDS011;22958;51.232;6.826;2023-06-14T03:13:52;9.30;;;6.03;;
37049;SDS011;22958;51.232;6.826;2023-06-14T03:16:18;10.25;;;5.35;;
37049;SDS011;22958;51.232;6.826;2023-06-14T03:18:44;8.90;;;5.78;;
37049;SDS011;22958;51.232;6.826;2023-06-14T03:21:10;15.00;;;5.70;;
37049;SDS011;22958;51.232;6.826;2023-06-14T03:23:35;8.50;;;5.67;;
37049;SDS011;22958;51.232;6.826;2023-06-14T03:26:01;9.83;;;5.80;;
37049;SDS011;22958;51.232;6.826;2023-06-14T03:28:27;11.20;;;6.07;;
37049;SDS011;22958;51.232;6.826;2023-06-14T03:30:52;18.13;;;5.23;;
37049;SDS011;22958;51.232;6.826;2023-06-14T03:33:18;11.57;;;5.68;;
37049;SDS011;22958;51.232;6.826;2023-06-14T03:35:44;10.07;;;5.97;;
37049;SDS011;22958;51.232;6.826;2023-06-14T03:38:09;9.77;;;4.93;;
37049;SDS011;22958;51.232;6.826;2023-06-14T03:40:35;8.87;;;5.47;;
37049;SDS011;22958;51.232;6.826;2023-06-14T03:43:01;12.50;;;5.87;;
37049;SDS011;22958;51.232;6.826;2023-06-14T03:45:27;9.37;;;5.77;;
37049;SDS011;22958;51.232;6.826;2023-06-14T03:47:52;11.40;;;5.63;;
37049;SDS011;22958;51.232;6.826;2023-06-14T03:50:18;9.73;;;5.73;;
37049;SDS011;22958;51.232;6.826;2023-06-14T03:52:44;12.77;;;5.60;;
37049;SDS011;22958;51.232;6.826;2023-06-14T03:55:09;14.13;;;5.03;;
37049;SDS011;22958;51.232;6.826;2023-06-14T03:57:38;11.10;;;5.78;;
37049;SDS011;22958;51.232;6.826;2023-06-14T04:00:03;12.30;;;5.70;;
37049;SDS011;22958;51.232;6.826;2023-06-14T04:02:30;16.00;;;5.63;;
37049;SDS011;22958;51.232;6.826;2023-06-14T04:04:56;8.97;;;5.97;;
37049;SDS011;22958;51.232;6.826;2023-06-14T04:07:22;14.37;;;5.83;;
37049;SDS011;22958;51.232;6.826;2023-06-14T04:09:48;13.18;;;6.53;;
37049;SDS011;22958;51.232;6.826;2023-06-14T04:12:14;22.43;;;6.13;;
37049;SDS011;22958;51.232;6.826;2023-06-14T04:14:40;11.07;;;6.13;;
37049;SDS011;22958;51.232;6.826;2023-06-14T04:17:06;13.68;;;5.80;;
37049;SDS011;22958;51.232;6.826;2023-06-14T04:19:31;14.63;;;6.00;;
37049;SDS011;22958;51.232;6.826;2023-06-14T04:21:57;13.27;;;5.57;;
37049;SDS011;22958;51.232;6.826;2023-06-14T04:24:27;10.75;;;6.25;;
37049;SDS011;22958;51.232;6.826;2023-06-14T04:26:57;9.50;;;5.75;;
37049;SDS011;22958;51.232;6.826;2023-06-14T04:29:26;10.60;;;6.03;;
37049;SDS011;22958;51.232;6.826;2023-06-14T04:31:54;9.45;;;6.00;;
37049;SDS011;22958;51.232;6.826;2023-06-14T04:34:23;13.45;;;6.00;;
37049;SDS011;22958;51.232;6.826;2023-06-14T04:36:58;13.57;;;5.97;;
37049;SDS011;22958;51.232;6.826;2023-06-14T04:39:26;14.38;;;5.45;;
37049;SDS011;22958;51.232;6.826;2023-06-14T04:41:52;10.90;;;5.45;;
37049;SDS011;22958;51.232;6.826;2023-06-14T04:44:21;16.60;;;6.40;;
37049;SDS011;22958;51.232;6.826;2023-06-14T04:46:55;12.70;;;6.35;;
37049;SDS011;22958;51.232;6.826;2023-06-14T04:49:24;9.80;;;5.13;;
37049;SDS011;22958;51.232;6.826;2023-06-14T04:51:52;17.25;;;5.70;;
37049;SDS011;22958;51.232;6.826;2023-06-14T04:54:22;15.30;;;5.00;;
37049;SDS011;22958;51.232;6.826;2023-06-14T04:56:49;14.75;;;4.82;;
37049;SDS011;22958;51.232;6.826;2023-06-14T04:59:15;10.47;;;5.80;;
37049;SDS011;22958;51.232;6.826;2023-06-14T05:04:12;19.50;;;5.70;;
37049;SDS011;22958;51.232;6.826;2023-06-14T05:06:38;9.43;;;5.07;;
37049;SDS011;22958;51.232;6.826;2023-06-14T05:09:04;15.93;;;5.20;;
37049;SDS011;22958;51.232;6.826;2023-06-14T05:11:29;14.20;;;5.57;;
37049;SDS011;22958;51.232;6.826;2023-06-14T05:13:55;16.23;;;5.97;;
37049;SDS011;22958;51.232;6.826;2023-06-14T05:16:23;10.85;;;5.15;;
37049;SDS011;22958;51.232;6.826;2023-06-14T05:18:50;9.82;;;5.25;;
37049;SDS011;22958;51.232;6.826;2023-06-14T05:21:17;15.25;;;5.35;;
37049;SDS011;22958;51.232;6.826;2023-06-14T05:23:43;10.90;;;5.55;;
37049;SDS011;22958;51.232;6.826;2023-06-14T05:28:35;10.75;;;5.93;;
37049;SDS011;22958;51.232;6.826;2023-06-14T05:31:01;8.80;;;4.73;;
37049;SDS011;22958;51.232;6.826;2023-06-14T05:33:27;23.58;;;5.97;;
37049;SDS011;22958;51.232;6.826;2023-06-14T05:35:53;10.70;;;5.73;;
37049;SDS011;22958;51.232;6.826;2023-06-14T05:38:19;12.63;;;5.13;;
37049;SDS011;22958;51.232;6.826;2023-06-14T05:40:44;11.50;;;5.30;;
37049;SDS011;22958;51.232;6.826;2023-06-14T05:43:10;15.50;;;5.33;;
37049;SDS011;22958;51.232;6.826;2023-06-14T05:45:35;13.23;;;4.93;;
37049;SDS011;22958;51.232;6.826;2023-06-14T05:48:01;17.60;;;4.90;;
37049;SDS011;22958;51.232;6.826;2023-06-14T05:50:26;15.37;;;5.30;;
37049;SDS011;22958;51.232;6.826;2023-06-14T05:52:53;15.20;;;5.10;;
37049;SDS011;22958;51.232;6.826;2023-06-14T05:55:18;17.70;;;5.35;;
37049;SDS011;22958;51.232;6.826;2023-06-14T05:57:44;17.77;;;5.35;;
37049;SDS011;22958;51.232;6.826;2023-06-14T06:00:10;11.70;;;4.57;;
37049;SDS011;22958;51.232;6.826;2023-06-14T06:02:39;22.33;;;5.45;;
37049;SDS011;22958;51.232;6.826;2023-06-14T06:05:08;13.05;;;5.05;;
37049;SDS011;22958;51.232;6.826;2023-06-14T06:07:34;14.00;;;4.90;;
37049;SDS011;22958;51.232;6.826;2023-06-14T06:10:00;36.63;;;5.43;;
37049;SDS011;22958;51.232;6.826;2023-06-14T06:12:26;13.33;;;4.93;;
37049;SDS011;22958;51.232;6.826;2023-06-14T06:14:51;18.50;;;4.77;;
37049;SDS011;22958;51.232;6.826;2023-06-14T06:17:17;13.27;;;4.00;;
37049;SDS011;22958;51.232;6.826;2023-06-14T06:19:42;8.60;;;4.20;;
37049;SDS011;22958;51.232;6.826;2023-06-14T06:22:08;26.35;;;5.50;;
37049;SDS011;22958;51.232;6.826;2023-06-14T06:24:34;18.80;;;5.00;;
37049;SDS011;22958;51.232;6.826;2023-06-14T06:26:59;11.90;;;4.27;;
37049;SDS011;22958;51.232;6.826;2023-06-14T06:29:25;14.13;;;5.20;;
37049;SDS011;22958;51.232;6.826;2023-06-14T06:31:51;13.37;;;4.67;;
37049;SDS011;22958;51.232;6.826;2023-06-14T06:34:16;9.37;;;3.93;;
37049;SDS011;22958;51.232;6.826;2023-06-14T06:36:42;9.93;;;4.47;;
37049;SDS011;22958;51.232;6.826;2023-06-14T06:39:07;20.23;;;5.27;;
37049;SDS011;22958;51.232;6.826;2023-06-14T06:41:35;13.23;;;3.90;;
37049;SDS011;22958;51.232;6.826;2023-06-14T06:44:02;15.48;;;4.03;;
37049;SDS011;22958;51.232;6.826;2023-06-14T06:46:28;7.43;;;4.43;;
37049;SDS011;22958;51.232;6.826;2023-06-14T06:48:54;7.70;;;3.70;;
37049;SDS011;22958;51.232;6.826;2023-06-14T06:51:19;9.67;;;3.93;;
37049;SDS011;22958;51.232;6.826;2023-06-14T06:53:48;11.03;;;3.33;;
37049;SDS011;22958;51.232;6.826;2023-06-14T06:56:17;7.90;;;2.70;;
37049;SDS011;22958;51.232;6.826;2023-06-14T06:58:44;9.75;;;3.03;;
37049;SDS011;22958;51.232;6.826;2023-06-14T07:01:10;12.03;;;2.97;;
37049;SDS011;22958;51.232;6.826;2023-06-14T07:03:35;7.97;;;2.60;;
37049;SDS011;22958;51.232;6.826;2023-06-14T07:06:00;8.73;;;3.10;;
37049;SDS011;22958;51.232;6.826;2023-06-14T07:08:26;7.97;;;2.50;;
37049;SDS011;22958;51.232;6.826;2023-06-14T07:10:52;7.35;;;2.38;;
37049;SDS011;22958;51.232;6.826;2023-06-14T07:13:19;6.82;;;2.20;;
37049;SDS011;22958;51.232;6.826;2023-06-14T07:15:44;5.57;;;2.60;;
37049;SDS011;22958;51.232;6.826;2023-06-14T07:18:10;5.43;;;2.20;;
37049;SDS011;22958;51.232;6.826;2023-06-14T07:20:35;6.07;;;2.33;;
37049;SDS011;22958;51.232;6.826;2023-06-14T07:23:03;6.60;;;2.80;;
37049;SDS011;22958;51.232;6.826;2023-06-14T07:25:29;6.55;;;2.47;;
37049;SDS011;22958;51.232;6.826;2023-06-14T07:27:55;8.27;;;2.67;;
37049;SDS011;22958;51.232;6.826;2023-06-14T07:30:20;5.17;;;2.30;;
37049;SDS011;22958;51.232;6.826;2023-06-14T07:32:46;7.13;;;2.90;;
37049;SDS011;22958;51.232;6.826;2023-06-14T07:35:11;3.87;;;2.07;;
37049;SDS011;22958;51.232;6.826;2023-06-14T07:37:37;5.33;;;2.10;;
37049;SDS011;22958;51.232;6.826;2023-06-14T07:40:03;4.40;;;1.93;;
37049;SDS011;22958;51.232;6.826;2023-06-14T07:42:32;4.85;;;2.03;;
37049;SDS011;22958;51.232;6.826;2023-06-14T07:44:59;15.20;;;2.55;;
37049;SDS011;22958;51.232;6.826;2023-06-14T07:47:24;9.57;;;3.40;;
37049;SDS011;22958;51.232;6.826;2023-06-14T07:49:50;4.68;;;2.15;;
37049;SDS011;22958;51.232;6.826;2023-06-14T07:52:15;3.50;;;2.00;;
37049;SDS011;22958;51.232;6.826;2023-06-14T07:54:41;3.70;;;2.07;;
37049;SDS011;22958;51.232;6.826;2023-06-14T07:57:06;7.20;;;2.10;;
37049;SDS011;22958;51.232;6.826;2023-06-14T07:59:32;4.50;;;2.30;;
37049;SDS011;22958;51.232;6.826;2023-06-14T08:01:58;5.30;;;2.10;;
37049;SDS011;22958;51.232;6.826;2023-06-14T08:04:23;6.97;;;1.83;;
37049;SDS011;22958;51.232;6.826;2023-06-14T08:06:50;4.03;;;2.17;;
37049;SDS011;22958;51.232;6.826;2023-06-14T08:09:15;10.30;;;2.10;;
37049;SDS011;22958;51.232;6.826;2023-06-14T08:11:41;8.43;;;2.40;;
37049;SDS011;22958;51.232;6.826;2023-06-14T08:14:07;3.17;;;1.90;;
37049;SDS011;22958;51.232;6.826;2023-06-14T08:16:33;5.18;;;2.00;;
37049;SDS011;22958;51.232;6.826;2023-06-14T08:18:58;7.83;;;1.90;;
37049;SDS011;22958;51.232;6.826;2023-06-14T08:21:24;12.17;;;2.50;;
37049;SDS011;22958;51.232;6.826;2023-06-14T08:23:52;12.02;;;2.15;;
37049;SDS011;22958;51.232;6.826;2023-06-14T08:28:44;6.55;;;2.20;;
37049;SDS011;22958;51.232;6.826;2023-06-14T08:31:10;7.57;;;2.20;;
37049;SDS011;22958;51.232;6.826;2023-06-14T08:33:36;3.40;;;1.63;;
37049;SDS011;22958;51.232;6.826;2023-06-14T08:36:01;6.10;;;2.10;;
37049;SDS011;22958;51.232;6.826;2023-06-14T08:38:27;7.03;;;2.07;;
37049;SDS011;22958;51.232;6.826;2023-06-14T08:40:52;7.90;;;2.33;;
37049;SDS011;22958;51.232;6.826;2023-06-14T08:43:22;15.57;;;2.70;;
37049;SDS011;22958;51.232;6.826;2023-06-14T08:45:48;6.63;;;2.60;;
37049;SDS011;22958;51.232;6.826;2023-06-14T08:48:18;8.60;;;1.98;;
37049;SDS011;22958;51.232;6.826;2023-06-14T08:50:46;6.50;;;2.15;;
37049;SDS011;22958;51.232;6.826;2023-06-14T08:53:13;9.05;;;2.40;;
37049;SDS011;22958;51.232;6.826;2023-06-14T08:55:44;12.63;;;2.65;;
37049;SDS011;22958;51.232;6.826;2023-06-14T08:58:10;5.10;;;2.40;;
37049;SDS011;22958;51.232;6.826;2023-06-14T09:00:39;10.10;;;2.80;;
37049;SDS011;22958;51.232;6.826;2023-06-14T09:03:06;4.50;;;1.90;;
37049;SDS011;22958;51.232;6.826;2023-06-14T09:05:38;6.85;;;2.05;;
37049;SDS011;22958;51.232;6.826;2023-06-14T09:08:04;9.25;;;2.58;;
37049;SDS011;22958;51.232;6.826;2023-06-14T09:10:30;7.78;;;2.42;;
37049;SDS011;22958;51.232;6.826;2023-06-14T09:12:58;15.00;;;2.42;;
37049;SDS011;22958;51.232;6.826;2023-06-14T09:15:26;5.82;;;1.95;;
37049;SDS011;22958;51.232;6.826;2023-06-14T09:17:51;6.03;;;2.20;;
37049;SDS011;22958;51.232;6.826;2023-06-14T09:22:43;7.93;;;2.10;;
37049;SDS011;22958;51.232;6.826;2023-06-14T09:25:09;8.88;;;2.35;;
37049;SDS011;22958;51.232;6.826;2023-06-14T09:27:37;6.07;;;2.28;;
37049;SDS011;22958;51.232;6.826;2023-06-14T09:30:05;11.75;;;2.05;;
37049;SDS011;22958;51.232;6.826;2023-06-14T09:32:32;8.45;;;2.28;;
37049;SDS011;22958;51.232;6.826;2023-06-14T09:35:02;6.63;;;2.05;;
37049;SDS011;22958;51.232;6.826;2023-06-14T09:37:29;11.30;;;2.47;;
37049;SDS011;22958;51.232;6.826;2023-06-14T09:39:55;5.60;;;2.10;;
37049;SDS011;22958;51.232;6.826;2023-06-14T09:42:21;12.98;;;2.50;;
37049;SDS011;22958;51.232;6.826;2023-06-14T09:44:50;3.15;;;1.92;;
37049;SDS011;22958;51.232;6.826;2023-06-14T09:47:17;5.90;;;1.92;;
37049;SDS011;22958;51.232;6.826;2023-06-14T09:49:43;3.60;;;1.88;;
37049;SDS011;22958;51.232;6.826;2023-06-14T09:52:15;5.20;;;1.90;;
37049;SDS011;22958;51.232;6.826;2023-06-14T09:54:45;8.48;;;2.22;;
37049;SDS011;22958;51.232;6.826;2023-06-14T09:57:13;5.97;;;2.00;;
37049;SDS011;22958;51.232;6.826;2023-06-14T09:59:41;7.32;;;2.20;;
37049;SDS011;22958;51.232;6.826;2023-06-14T10:02:25;7.47;;;1.98;;
37049;SDS011;22958;51.232;6.826;2023-06-14T10:07:43;6.10;;;2.33;;
37049;SDS011;22958;51.232;6.826;2023-06-14T10:10:13;3.30;;;1.80;;
37049;SDS011;22958;51.232;6.826;2023-06-14T10:12:39;7.55;;;1.92;;
37049;SDS011;22958;51.232;6.826;2023-06-14T10:15:05;8.90;;;2.17;;
37049;SDS011;22958;51.232;6.826;2023-06-14T10:17:41;5.43;;;2.00;;
37049;SDS011;22958;51.232;6.826;2023-06-14T10:23:04;3.83;;;1.77;;
37049;SDS011;22958;51.232;6.826;2023-06-14T10:25:35;7.82;;;2.25;;
37049;SDS011;22958;51.232;6.826;2023-06-14T10:28:20;6.73;;;1.77;;
37049;SDS011;22958;51.232;6.826;2023-06-14T10:33:38;4.93;;;1.60;;
37049;SDS011;22958;51.232;6.826;2023-06-14T10:36:27;5.97;;;1.75;;
37049;SDS011;22958;51.232;6.826;2023-06-14T10:38:59;5.07;;;2.00;;
37049;SDS011;22958;51.232;6.826;2023-06-14T10:41:42;14.65;;;2.10;;
37049;SDS011;22958;51.232;6.826;2023-06-14T10:46:47;5.30;;;1.85;;
37049;SDS011;22958;51.232;6.826;2023-06-14T10:49:15;13.65;;;1.85;;
37049;SDS011;22958;51.232;6.826;2023-06-14T10:51:45;4.97;;;1.88;;
37049;SDS011;22958;51.232;6.826;2023-06-14T10:54:15;4.93;;;1.80;;
37049;SDS011;22958;51.232;6.826;2023-06-14T10:56:48;5.80;;;1.95;;
37049;SDS011;22958;51.232;6.826;2023-06-14T10:59:15;6.20;;;1.58;;
37049;SDS011;22958;51.232;6.826;2023-06-14T11:04:11;5.07;;;2.00;;
37049;SDS011;22958;51.232;6.826;2023-06-14T11:06:46;36.17;;;3.77;;
37049;SDS011;22958;51.232;6.826;2023-06-14T11:09:20;4.32;;;1.98;;
37049;SDS011;22958;51.232;6.826;2023-06-14T11:11:55;14.50;;;2.25;;
37049;SDS011;22958;51.232;6.826;2023-06-14T11:14:21;5.00;;;1.73;;
37049;SDS011;22958;51.232;6.826;2023-06-14T11:16:48;20.17;;;3.10;;
37049;SDS011;22958;51.232;6.826;2023-06-14T11:19:16;6.07;;;1.70;;
37049;SDS011;22958;51.232;6.826;2023-06-14T11:21:47;3.80;;;2.03;;
37049;SDS011;22958;51.232;6.826;2023-06-14T11:24:13;8.77;;;1.80;;
37049;SDS011;22958;51.232;6.826;2023-06-14T11:26:39;5.55;;;1.73;;
37049;SDS011;22958;51.232;6.826;2023-06-14T11:29:05;5.78;;;2.13;;
37049;SDS011;22958;51.232;6.826;2023-06-14T11:33:57;9.15;;;2.40;;
37049;SDS011;22958;51.232;6.826;2023-06-14T11:36:27;13.02;;;2.00;;
37049;SDS011;22958;51.232;6.826;2023-06-14T11:39:00;9.77;;;2.42;;
37049;SDS011;22958;51.232;6.826;2023-06-14T11:41:37;16.42;;;2.90;;
37049;SDS011;22958;51.232;6.826;2023-06-14T11:44:05;23.85;;;3.88;;
37049;SDS011;22958;51.232;6.826;2023-06-14T11:46:32;5.68;;;1.60;;
37049;SDS011;22958;51.232;6.826;2023-06-14T11:48:57;7.13;;;1.77;;
37049;SDS011;22958;51.232;6.826;2023-06-14T11:51:23;4.72;;;1.95;;
37049;SDS011;22958;51.232;6.826;2023-06-14T11:53:49;3.13;;;1.20;;
37049;SDS011;22958;51.232;6.826;2023-06-14T11:56:15;3.90;;;1.80;;
37049;SDS011;22958;51.232;6.826;2023-06-14T11:58:42;2.97;;;1.42;;
37049;SDS011;22958;51.232;6.826;2023-06-14T12:01:08;7.78;;;1.58;;
37049;SDS011;22958;51.232;6.826;2023-06-14T12:03:34;2.95;;;1.45;;
37049;SDS011;22958;51.232;6.826;2023-06-14T12:08:33;4.15;;;1.30;;
37049;SDS011;22958;51.232;6.826;2023-06-14T12:13:41;4.38;;;1.27;;
37049;SDS011;22958;51.232;6.826;2023-06-14T12:16:08;7.70;;;1.75;;
37049;SDS011;22958;51.232;6.826;2023-06-14T12:18:35;4.25;;;1.30;;
37049;SDS011;22958;51.232;6.826;2023-06-14T12:21:08;4.18;;;1.40;;
37049;SDS011;22958;51.232;6.826;2023-06-14T12:23:44;7.32;;;1.60;;
37049;SDS011;22958;51.232;6.826;2023-06-14T12:26:14;15.77;;;1.75;;
37049;SDS011;22958;51.232;6.826;2023-06-14T12:28:46;15.85;;;2.45;;
37049;SDS011;22958;51.232;6.826;2023-06-14T12:31:13;13.18;;;1.83;;
37049;SDS011;22958;51.232;6.826;2023-06-14T12:33:40;8.57;;;1.73;;
37049;SDS011;22958;51.232;6.826;2023-06-14T12:36:06;8.80;;;1.45;;
37049;SDS011;22958;51.232;6.826;2023-06-14T12:38:33;3.22;;;1.20;;
37049;SDS011;22958;51.232;6.826;2023-06-14T12:40:59;4.38;;;1.35;;
37049;SDS011;22958;51.232;6.826;2023-06-14T12:43:25;6.10;;;1.63;;
37049;SDS011;22958;51.232;6.826;2023-06-14T12:45:51;3.85;;;1.45;;
37049;SDS011;22958;51.232;6.826;2023-06-14T12:48:16;5.82;;;1.40;;
37049;SDS011;22958;51.232;6.826;2023-06-14T12:50:42;3.83;;;1.02;;
37049;SDS011;22958;51.232;6.826;2023-06-14T12:53:08;3.38;;;1.30;;
37049;SDS011;22958;51.232;6.826;2023-06-14T12:55:33;9.35;;;1.30;;
37049;SDS011;22958;51.232;6.826;2023-06-14T12:57:59;8.68;;;1.33;;
37049;SDS011;22958;51.232;6.826;2023-06-14T13:00:24;1.60;;;1.20;;
37049;SDS011;22958;51.232;6.826;2023-06-14T13:02:52;6.45;;;1.70;;
37049;SDS011;22958;51.232;6.826;2023-06-14T13:05:18;22.45;;;2.53;;
37049;SDS011;22958;51.232;6.826;2023-06-14T13:07:43;8.77;;;2.15;;
37049;SDS011;22958;51.232;6.826;2023-06-14T13:10:09;12.23;;;2.00;;
37049;SDS011;22958;51.232;6.826;2023-06-14T13:12:35;3.90;;;1.33;;
37049;SDS011;22958;51.232;6.826;2023-06-14T13:15:01;7.72;;;1.50;;
37049;SDS011;22958;51.232;6.826;2023-06-14T13:17:26;5.35;;;1.85;;
37049;SDS011;22958;51.232;6.826;2023-06-14T13:19:52;3.55;;;1.70;;
37049;SDS011;22958;51.232;6.826;2023-06-14T13:22:17;4.88;;;1.63;;
37049;SDS011;22958;51.232;6.826;2023-06-14T13:24:43;9.40;;;1.70;;
37049;SDS011;22958;51.232;6.826;2023-06-14T13:27:08;7.70;;;1.88;;
37049;SDS011;22958;51.232;6.826;2023-06-14T13:29:35;5.40;;;1.63;;
37049;SDS011;22958;51.232;6.826;2023-06-14T13:32:01;4.90;;;1.60;;
37049;SDS011;22958;51.232;6.826;2023-06-14T13:34:27;8.18;;;1.63;;
37049;SDS011;22958;51.232;6.826;2023-06-14T13:36:53;26.13;;;2.83;;
37049;SDS011;22958;51.232;6.826;2023-06-14T13:39:18;9.02;;;2.60;;
37049;SDS011;22958;51.232;6.826;2023-06-14T13:41:44;12.30;;;1.85;;
37049;SDS011;22958;51.232;6.826;2023-06-14T13:44:09;8.25;;;2.05;;
37049;SDS011;22958;51.232;6.826;2023-06-14T13:46:39;12.20;;;2.60;;
37049;SDS011;22958;51.232;6.826;2023-06-14T13:49:04;5.90;;;1.80;;
37049;SDS011;22958;51.232;6.826;2023-06-14T13:51:30;8.32;;;2.20;;
37049;SDS011;22958;51.232;6.826;2023-06-14T13:53:55;4.20;;;1.75;;
37049;SDS011;22958;51.232;6.826;2023-06-14T13:56:21;3.30;;;1.67;;
37049;SDS011;22958;51.232;6.826;2023-06-14T13:58:50;3.40;;;1.80;;
37049;SDS011;22958;51.232;6.826;2023-06-14T14:01:17;9.82;;;2.40;;
37049;SDS011;22958;51.232;6.826;2023-06-14T14:03:44;10.00;;;2.33;;
37049;SDS011;22958;51.232;6.826;2023-06-14T14:06:14;5.55;;;2.03;;
37049;SDS011;22958;51.232;6.826;2023-06-14T14:08:40;7.72;;;1.75;;
37049;SDS011;22958;51.232;6.826;2023-06-14T14:11:06;14.27;;;2.47;;
37049;SDS011;22958;51.232;6.826;2023-06-14T14:13:32;7.80;;;2.10;;
37049;SDS011;22958;51.232;6.826;2023-06-14T14:15:58;5.93;;;1.80;;
37049;SDS011;22958;51.232;6.826;2023-06-14T14:18:24;3.78;;;1.60;;
37049;SDS011;22958;51.232;6.826;2023-06-14T14:20:50;4.68;;;1.70;;
37049;SDS011;22958;51.232;6.826;2023-06-14T14:23:16;5.03;;;1.60;;
37049;SDS011;22958;51.232;6.826;2023-06-14T14:25:41;5.60;;;1.70;;
37049;SDS011;22958;51.232;6.826;2023-06-14T14:28:07;4.93;;;1.85;;
37049;SDS011;22958;51.232;6.826;2023-06-14T14:30:32;5.15;;;1.92;;
37049;SDS011;22958;51.232;6.826;2023-06-14T14:32:59;10.85;;;2.08;;
37049;SDS011;22958;51.232;6.826;2023-06-14T14:35:24;7.10;;;2.15;;
37049;SDS011;22958;51.232;6.826;2023-06-14T14:37:55;11.13;;;2.20;;
37049;SDS011;22958;51.232;6.826;2023-06-14T14:40:21;6.00;;;2.22;;
37049;SDS011;22958;51.232;6.826;2023-06-14T14:42:46;7.95;;;2.53;;
37049;SDS011;22958;51.232;6.826;2023-06-14T14:45:12;36.65;;;3.50;;
37049;SDS011;22958;51.232;6.826;2023-06-14T14:47:37;5.63;;;1.85;;
37049;SDS011;22958;51.232;6.826;2023-06-14T14:50:03;5.50;;;1.80;;
37049;SDS011;22958;51.232;6.826;2023-06-14T14:52:28;8.27;;;2.13;;
37049;SDS011;22958;51.232;6.826;2023-06-14T14:57:19;7.05;;;1.90;;
37049;SDS011;22958;51.232;6.826;2023-06-14T14:59:46;5.50;;;2.10;;
37049;SDS011;22958;51.232;6.826;2023-06-14T15:02:11;3.20;;;1.67;;
37049;SDS011;22958;51.232;6.826;2023-06-14T15:07:02;4.70;;;2.22;;
37049;SDS011;22958;51.232;6.826;2023-06-14T15:09:28;6.82;;;2.67;;
37049;SDS011;22958;51.232;6.826;2023-06-14T15:14:19;4.15;;;1.80;;
37049;SDS011;22958;51.232;6.826;2023-06-14T15:19:10;7.05;;;2.00;;
37049;SDS011;22958;51.232;6.826;2023-06-14T15:24:01;9.50;;;2.35;;
37049;SDS011;22958;51.232;6.826;2023-06-14T15:28:52;2.95;;;2.00;;
37049;SDS011;22958;51.232;6.826;2023-06-14T15:31:18;5.38;;;2.20;;